createdAt,value
2023-01-30T00:01:14.885Z,4.60
2023-01-30T00:04:06.380Z,4.30
2023-01-30T00:06:57.225Z,4.90
2023-01-30T00:09:47.898Z,5.10
2023-01-30T00:12:39.977Z,4.40
2023-01-30T00:15:30.317Z,4.80
2023-01-30T00:18:21.115Z,4.60
2023-01-30T00:21:15.252Z,4.60
2023-01-30T00:24:05.588Z,4.70
2023-01-30T00:26:56.637Z,4.80
2023-01-30T00:33:00.364Z,4.10
2023-01-30T00:35:52.409Z,3.70
2023-01-30T00:38:42.371Z,4.10
2023-01-30T00:41:46.980Z,3.90
2023-01-30T00:44:55.479Z,4.10
2023-01-30T00:47:46.576Z,3.70
2023-01-30T00:50:44.363Z,3.90
2023-01-30T00:53:36.141Z,3.60
2023-01-30T00:56:27.112Z,3.80
2023-01-30T00:59:19.261Z,3.90
2023-01-30T01:02:09.647Z,4.10
2023-01-30T01:05:00.330Z,4.00
2023-01-30T01:07:50.921Z,4.40
2023-01-30T01:10:41.716Z,3.80
2023-01-30T01:13:32.377Z,4.10
2023-01-30T01:16:23.477Z,4.30
2023-01-30T01:19:14.601Z,3.80
2023-01-30T01:22:04.848Z,3.80
2023-01-30T01:24:57.185Z,3.90
2023-01-30T01:27:48.224Z,3.60
2023-01-30T01:30:40.904Z,3.70
2023-01-30T01:33:34.212Z,3.70
2023-01-30T01:36:51.602Z,3.40
2023-01-30T01:39:50.970Z,3.50
2023-01-30T01:42:42.320Z,3.60
2023-01-30T01:45:33.236Z,3.90
2023-01-30T01:48:30.003Z,3.60
2023-01-30T01:51:28.699Z,4.10
2023-01-30T01:54:23.803Z,4.20
2023-01-30T01:57:23.197Z,3.80
2023-01-30T02:00:17.555Z,3.60
2023-01-30T02:03:12.250Z,6.10
2023-01-30T02:06:06.176Z,3.40
2023-01-30T02:09:01.518Z,4.40
2023-01-30T02:11:57.604Z,3.70
2023-01-30T02:14:49.581Z,4.00
2023-01-30T02:17:40.684Z,3.90
2023-01-30T02:20:53.965Z,3.80
2023-01-30T02:24:22.969Z,3.60
2023-01-30T02:27:29.989Z,4.00
2023-01-30T02:30:58.877Z,3.90
2023-01-30T02:33:58.365Z,3.50
2023-01-30T02:37:02.640Z,3.40
2023-01-30T02:40:07.985Z,3.30
2023-01-30T02:43:10.002Z,3.30
2023-01-30T02:46:07.227Z,3.60
2023-01-30T02:49:02.453Z,3.30
2023-01-30T02:51:54.275Z,3.70
2023-01-30T02:54:45.174Z,3.80
2023-01-30T02:57:35.635Z,3.40
2023-01-30T03:00:36.841Z,3.80
2023-01-30T03:03:47.828Z,3.80
2023-01-30T03:06:55.197Z,3.60
2023-01-30T03:09:56.146Z,3.60
2023-01-30T03:12:57.271Z,3.70
2023-01-30T03:15:52.314Z,3.60
2023-01-30T03:18:46.871Z,3.40
2023-01-30T03:21:44.897Z,3.70
2023-01-30T03:24:36.279Z,3.50
2023-01-30T03:27:26.879Z,3.50
2023-01-30T03:30:19.350Z,3.70
2023-01-30T03:33:10.854Z,4.00
2023-01-30T03:36:02.993Z,3.60
2023-01-30T03:38:55.143Z,3.40
2023-01-30T03:41:46.158Z,3.60
2023-01-30T03:44:37.180Z,3.40
2023-01-30T03:47:27.523Z,3.70
2023-01-30T03:50:19.182Z,3.80
2023-01-30T03:53:10.345Z,3.40
2023-01-30T03:56:01.030Z,3.50
2023-01-30T03:58:54.333Z,3.60
2023-01-30T04:01:51.828Z,3.50
2023-01-30T04:04:42.505Z,3.20
2023-01-30T04:07:34.235Z,3.10
2023-01-30T04:10:26.129Z,3.80
2023-01-30T04:13:16.841Z,3.50
2023-01-30T04:16:22.536Z,3.50
2023-01-30T04:19:42.261Z,5.10
2023-01-30T04:22:34.323Z,3.40
2023-01-30T04:25:25.377Z,3.50
2023-01-30T04:28:16.691Z,3.70
2023-01-30T04:31:09.287Z,3.70
2023-01-30T04:34:05.671Z,3.90
2023-01-30T04:36:56.403Z,3.60
2023-01-30T04:39:47.350Z,3.50
2023-01-30T04:42:38.128Z,3.40
2023-01-30T04:45:59.046Z,3.90
2023-01-30T04:48:50.179Z,3.50
2023-01-30T04:51:41.203Z,3.40
2023-01-30T04:54:31.931Z,3.50
2023-01-30T04:57:22.442Z,4.10
2023-01-30T05:00:16.450Z,4.10
2023-01-30T05:03:14.556Z,3.80
2023-01-30T05:06:04.910Z,3.80
2023-01-30T05:08:57.121Z,3.80
2023-01-30T05:11:47.676Z,3.90
2023-01-30T05:14:41.493Z,4.00
2023-01-30T05:17:32.657Z,3.60
2023-01-30T05:20:23.283Z,3.90
2023-01-30T05:23:13.819Z,3.60
2023-01-30T05:26:05.364Z,3.70
2023-01-30T05:28:56.963Z,4.10
2023-01-30T05:31:47.219Z,3.90
2023-01-30T05:34:37.585Z,3.80
2023-01-30T05:37:28.761Z,4.10
2023-01-30T05:40:19.934Z,3.80
2023-01-30T05:43:10.693Z,4.20
2023-01-30T05:46:04.036Z,3.60
2023-01-30T05:48:54.064Z,4.00
2023-01-30T05:51:44.652Z,4.20
2023-01-30T05:54:35.671Z,3.90
2023-01-30T05:57:26.602Z,4.00
2023-01-30T06:00:19.355Z,4.00
2023-01-30T06:03:10.568Z,4.20
2023-01-30T06:06:02.882Z,4.20
2023-01-30T06:08:56.728Z,3.50
2023-01-30T06:11:47.516Z,3.80
2023-01-30T06:14:37.545Z,3.80
2023-01-30T06:17:29.759Z,4.10
2023-01-30T06:20:20.986Z,4.10
2023-01-30T06:23:10.932Z,4.70
2023-01-30T06:26:03.696Z,4.10
2023-01-30T06:28:55.302Z,4.60
2023-01-30T06:31:45.833Z,4.70
2023-01-30T06:34:36.314Z,4.10
2023-01-30T06:37:27.202Z,3.90
2023-01-30T06:40:18.717Z,4.80
2023-01-30T06:43:09.271Z,4.50
2023-01-30T06:46:01.724Z,4.40
2023-01-30T06:48:52.085Z,4.90
2023-01-30T06:51:42.755Z,5.30
2023-01-30T06:54:33.396Z,4.90
2023-01-30T06:57:24.155Z,4.80
2023-01-30T07:00:18.501Z,5.60
2023-01-30T07:03:11.839Z,3.90
2023-01-30T07:06:03.047Z,4.00
2023-01-30T07:08:53.649Z,4.50
2023-01-30T07:11:43.609Z,4.00
2023-01-30T07:14:34.323Z,4.60
2023-01-30T07:17:25.362Z,5.00
2023-01-30T07:20:16.648Z,4.20
2023-01-30T07:23:07.287Z,4.00
2023-01-30T07:25:57.549Z,4.00
2023-01-30T07:28:47.615Z,5.50
2023-01-30T07:31:38.154Z,5.50
2023-01-30T07:34:28.292Z,5.70
2023-01-30T07:37:18.633Z,5.80
2023-01-30T07:40:12.387Z,5.20
2023-01-30T07:43:04.494Z,4.30
2023-01-30T07:45:55.390Z,4.70
2023-01-30T07:48:47.446Z,4.50
2023-01-30T07:51:37.675Z,4.40
2023-01-30T07:54:27.962Z,4.60
2023-01-30T07:57:18.101Z,4.60
2023-01-30T08:00:12.359Z,4.10
2023-01-30T08:03:02.408Z,6.60
2023-01-30T08:05:53.734Z,4.70
2023-01-30T08:08:43.508Z,4.60
2023-01-30T08:11:33.483Z,5.00
2023-01-30T08:14:23.384Z,4.50
2023-01-30T08:17:13.283Z,4.30
2023-01-30T08:20:03.135Z,4.50
2023-01-30T08:22:53.692Z,5.20
2023-01-30T08:25:43.913Z,4.90
2023-01-30T08:28:34.229Z,5.50
2023-01-30T08:31:24.328Z,5.90
2023-01-30T08:34:14.469Z,5.60
2023-01-30T08:37:04.399Z,5.70
2023-01-30T08:39:54.585Z,5.60
2023-01-30T08:42:46.700Z,5.90
2023-01-30T08:45:36.783Z,5.20
2023-01-30T08:48:29.867Z,5.50
2023-01-30T08:51:22.372Z,7.50
2023-01-30T08:54:13.098Z,6.50
2023-01-30T08:57:03.416Z,6.50
2023-01-30T08:59:54.482Z,6.20
2023-01-30T09:02:48.215Z,6.60
2023-01-30T09:05:38.329Z,6.10
2023-01-30T09:08:28.967Z,6.50
2023-01-30T09:11:19.098Z,6.60
2023-01-30T09:14:08.981Z,7.40
2023-01-30T09:16:59.394Z,7.10
2023-01-30T09:19:50.086Z,8.00
2023-01-30T09:22:41.029Z,8.30
2023-01-30T09:25:30.974Z,8.30
2023-01-30T09:28:20.862Z,9.30
2023-01-30T09:31:10.613Z,8.90
2023-01-30T09:34:01.451Z,8.90
2023-01-30T09:36:51.634Z,7.70
2023-01-30T09:39:41.824Z,6.20
2023-01-30T09:43:02.726Z,6.20
2023-01-30T09:46:12.951Z,6.90
2023-01-30T09:49:10.031Z,7.10
2023-01-30T09:52:13.642Z,6.80
2023-01-30T09:55:18.928Z,6.00
2023-01-30T09:58:14.804Z,5.70
2023-01-30T10:01:12.243Z,5.70
2023-01-30T10:04:16.766Z,6.00
2023-01-30T10:07:17.520Z,7.50
2023-01-30T10:10:15.644Z,7.30
2023-01-30T10:13:19.976Z,6.40
2023-01-30T10:16:18.882Z,6.70
2023-01-30T10:19:36.173Z,5.70
2023-01-30T10:22:42.092Z,6.40
2023-01-30T10:25:39.427Z,5.60
2023-01-30T10:28:34.093Z,5.70
2023-01-30T10:31:28.283Z,6.00
2023-01-30T10:34:24.015Z,6.40
2023-01-30T10:37:18.117Z,6.10
2023-01-30T10:40:20.852Z,6.50
2023-01-30T10:43:20.636Z,5.20
2023-01-30T10:46:25.886Z,5.40
2023-01-30T10:49:20.113Z,5.30
2023-01-30T10:52:27.249Z,5.10
2023-01-30T10:55:38.143Z,5.50
2023-01-30T10:58:36.262Z,5.40
2023-01-30T11:01:32.551Z,5.30
2023-01-30T11:04:31.501Z,5.80
2023-01-30T11:07:21.892Z,6.10
2023-01-30T11:10:19.065Z,5.50
2023-01-30T11:13:18.734Z,6.00
2023-01-30T11:16:11.968Z,6.30
2023-01-30T11:19:19.451Z,6.10
2023-01-30T11:22:15.633Z,5.20
2023-01-30T11:25:12.655Z,5.30
2023-01-30T11:28:04.724Z,5.00
2023-01-30T11:30:58.847Z,5.00
2023-01-30T11:34:00.446Z,4.70
2023-01-30T11:36:51.865Z,5.00
2023-01-30T11:39:52.549Z,5.50
2023-01-30T11:42:47.802Z,5.30
2023-01-30T11:45:43.229Z,5.10
2023-01-30T11:49:11.148Z,4.60
2023-01-30T11:51:48.948Z,5.00
2023-01-30T11:54:41.783Z,5.10
2023-01-30T11:57:40.064Z,5.30
2023-01-30T12:00:39.918Z,4.70
2023-01-30T12:03:31.443Z,5.10
2023-01-30T12:06:33.612Z,4.80
2023-01-30T12:09:36.331Z,4.80
2023-01-30T12:12:33.965Z,5.00
2023-01-30T12:15:27.716Z,5.50
2023-01-30T12:18:24.620Z,4.50
2023-01-30T12:21:22.160Z,4.60
2023-01-30T12:24:21.578Z,5.30
2023-01-30T12:27:19.058Z,5.20
2023-01-30T12:30:21.533Z,5.30
2023-01-30T12:36:15.451Z,5.30
2023-01-30T12:39:32.352Z,3.90
2023-01-30T12:42:48.480Z,5.00
2023-01-30T12:45:44.355Z,3.80
2023-01-30T12:48:48.870Z,4.80
2023-01-30T12:51:55.795Z,4.50
2023-01-30T12:54:56.074Z,4.90
2023-01-30T12:57:52.137Z,4.90
2023-01-30T13:00:57.380Z,4.80
2023-01-30T13:03:56.632Z,4.50
2023-01-30T13:06:59.747Z,4.40
2023-01-30T13:10:05.365Z,4.50
2023-01-30T13:13:04.637Z,4.70
2023-01-30T13:16:04.613Z,3.80
2023-01-30T13:18:59.200Z,4.80
2023-01-30T13:21:54.048Z,4.40
2023-01-30T13:24:58.697Z,4.30
2023-01-30T13:27:57.243Z,5.00
2023-01-30T13:30:50.800Z,4.90
2023-01-30T13:33:44.670Z,4.30
2023-01-30T13:36:44.316Z,4.60
2023-01-30T13:39:42.304Z,4.50
2023-01-30T13:42:40.121Z,3.30
2023-01-30T13:45:33.193Z,4.10
2023-01-30T13:48:48.125Z,4.40
2023-01-30T13:51:49.700Z,4.70
2023-01-30T13:54:51.095Z,4.70
2023-01-30T13:57:51.321Z,4.70
2023-01-30T14:00:41.374Z,4.80
2023-01-30T14:03:34.510Z,4.20
2023-01-30T14:06:37.336Z,4.00
2023-01-30T14:09:33.388Z,4.30
2023-01-30T14:12:27.272Z,3.60
2023-01-30T14:15:29.831Z,4.30
2023-01-30T14:18:26.476Z,3.90
2023-01-30T14:21:21.415Z,3.90
2023-01-30T14:24:27.917Z,4.30
2023-01-30T14:27:32.183Z,4.10
2023-01-30T14:30:47.836Z,4.70
2023-01-30T14:33:49.195Z,4.80
2023-01-30T14:36:48.511Z,6.00
2023-01-30T14:39:50.886Z,3.50
2023-01-30T14:42:41.579Z,4.40
2023-01-30T14:45:49.739Z,4.70
2023-01-30T14:48:45.782Z,4.70
2023-01-30T14:51:43.702Z,4.20
2023-01-30T14:54:42.508Z,4.10
2023-01-30T14:57:34.889Z,3.60
2023-01-30T15:00:29.519Z,4.20
2023-01-30T15:03:22.263Z,3.90
2023-01-30T15:06:14.067Z,3.50
2023-01-30T15:09:05.681Z,3.80
2023-01-30T15:12:06.215Z,3.80
2023-01-30T15:15:07.495Z,4.00
2023-01-30T15:18:14.192Z,4.10
2023-01-30T15:21:27.084Z,4.10
2023-01-30T15:25:01.943Z,4.10
2023-01-30T15:28:11.651Z,3.70
2023-01-30T15:31:13.970Z,3.40
2023-01-30T15:34:04.495Z,3.00
2023-01-30T15:36:54.388Z,3.60
2023-01-30T15:39:44.213Z,3.60
2023-01-30T15:42:34.272Z,4.10
2023-01-30T15:45:38.030Z,4.20
2023-01-30T15:48:40.528Z,3.90
2023-01-30T15:51:33.458Z,3.60
2023-01-30T15:54:25.806Z,3.70
2023-01-30T15:57:23.280Z,3.10
2023-01-30T16:00:25.881Z,3.40
2023-01-30T16:03:22.012Z,3.30
2023-01-30T16:06:25.033Z,3.80
2023-01-30T16:09:23.598Z,3.80
2023-01-30T16:12:27.990Z,3.60
2023-01-30T16:15:21.548Z,3.30
2023-01-30T16:18:25.839Z,3.50
2023-01-30T16:21:21.433Z,3.20
2023-01-30T16:24:18.727Z,3.60
2023-01-30T16:27:16.202Z,3.90
2023-01-30T16:30:09.821Z,3.00
2023-01-30T16:33:00.278Z,3.20
2023-01-30T16:35:50.171Z,3.50
2023-01-30T16:38:44.665Z,3.80
2023-01-30T16:41:39.406Z,5.20
2023-01-30T16:44:31.359Z,5.30
2023-01-30T16:47:28.767Z,6.00
2023-01-30T16:50:24.328Z,7.40
2023-01-30T16:53:18.660Z,6.20
2023-01-30T16:56:17.148Z,6.40
2023-01-30T16:59:08.834Z,6.20
2023-01-30T17:02:00.416Z,6.40
2023-01-30T17:04:50.630Z,6.20
2023-01-30T17:07:40.868Z,6.40
2023-01-30T17:10:52.795Z,6.30
2023-01-30T17:13:43.966Z,7.50
2023-01-30T17:16:37.296Z,8.40
2023-01-30T17:19:28.018Z,8.50
2023-01-30T17:22:24.535Z,7.90
2023-01-30T17:25:25.606Z,8.20
2023-01-30T17:28:24.190Z,8.10
2023-01-30T17:31:16.262Z,7.90
2023-01-30T17:34:06.939Z,7.50
2023-01-30T17:36:58.192Z,7.50
2023-01-30T17:39:48.845Z,7.60
2023-01-30T17:42:39.527Z,7.40
2023-01-30T17:45:30.047Z,7.20
2023-01-30T17:48:20.123Z,6.70
2023-01-30T17:51:12.637Z,7.00
2023-01-30T17:54:03.155Z,7.20
2023-01-30T17:56:56.669Z,6.90
2023-01-30T17:59:47.024Z,7.30
2023-01-30T18:02:37.440Z,7.30
2023-01-30T18:05:28.381Z,8.30
2023-01-30T18:08:18.842Z,10.40
2023-01-30T18:11:11.850Z,10.90
2023-01-30T18:14:02.188Z,11.20
2023-01-30T18:16:53.128Z,10.30
2023-01-30T18:19:43.246Z,10.10
2023-01-30T18:22:33.680Z,9.80
2023-01-30T18:25:24.020Z,11.20
2023-01-30T18:28:14.979Z,10.20
2023-01-30T18:31:05.199Z,9.00
2023-01-30T18:33:55.572Z,8.00
2023-01-30T18:36:45.996Z,7.30
2023-01-30T18:39:36.918Z,6.20
2023-01-30T18:42:27.241Z,6.90
2023-01-30T18:45:17.988Z,7.80
2023-01-30T18:48:09.499Z,7.40
2023-01-30T18:51:07.292Z,6.60
2023-01-30T18:53:58.362Z,7.10
2023-01-30T18:56:48.395Z,7.10
2023-01-30T18:59:39.743Z,11.30
2023-01-30T19:02:29.802Z,8.30
2023-01-30T19:05:20.636Z,6.40
2023-01-30T19:08:11.685Z,6.60
2023-01-30T19:11:22.469Z,5.90
2023-01-30T19:14:14.372Z,6.10
2023-01-30T19:17:04.389Z,6.50
2023-01-30T19:19:56.941Z,6.70
2023-01-30T19:22:46.935Z,6.50
2023-01-30T19:25:38.025Z,7.60
2023-01-30T19:28:28.917Z,7.70
2023-01-30T19:31:21.279Z,7.80
2023-01-30T19:34:13.203Z,8.00
2023-01-30T19:37:03.837Z,7.90
2023-01-30T19:39:56.252Z,8.00
2023-01-30T19:42:47.326Z,8.60
2023-01-30T19:45:38.336Z,9.70
2023-01-30T19:48:30.205Z,9.70
2023-01-30T19:51:23.846Z,9.80
2023-01-30T19:54:15.493Z,8.50
2023-01-30T19:57:06.725Z,8.50
2023-01-30T19:59:57.890Z,9.30
2023-01-30T20:02:50.135Z,9.00
2023-01-30T20:05:41.868Z,8.70
2023-01-30T20:08:33.097Z,8.00
2023-01-30T20:11:23.709Z,8.40
2023-01-30T20:14:13.997Z,8.60
2023-01-30T20:17:04.315Z,8.70
2023-01-30T20:19:54.711Z,8.40
2023-01-30T20:22:44.977Z,8.70
2023-01-30T20:25:38.467Z,8.60
2023-01-30T20:28:29.415Z,7.40
2023-01-30T20:31:22.825Z,7.40
2023-01-30T20:34:16.529Z,6.70
2023-01-30T20:37:06.730Z,6.40
2023-01-30T20:39:57.343Z,6.90
2023-01-30T20:42:48.859Z,7.70
2023-01-30T20:45:39.788Z,8.60
2023-01-30T20:48:30.221Z,7.90
2023-01-30T20:51:22.920Z,7.00
2023-01-30T20:54:15.108Z,7.10
2023-01-30T20:57:06.006Z,7.10
2023-01-30T20:59:56.171Z,7.60
2023-01-30T21:02:48.923Z,6.90
2023-01-30T21:05:39.865Z,7.20
2023-01-30T21:08:30.751Z,7.10
2023-01-30T21:11:22.391Z,7.10
2023-01-30T21:14:14.118Z,7.40
2023-01-30T21:17:05.056Z,7.30
2023-01-30T21:19:55.665Z,6.70
2023-01-30T21:22:46.450Z,7.30
2023-01-30T21:25:38.077Z,5.70
2023-01-30T21:28:30.441Z,5.60
2023-01-30T21:31:24.106Z,6.00
2023-01-30T21:34:14.942Z,5.80
2023-01-30T21:37:18.774Z,6.10
2023-01-30T21:40:30.218Z,6.90
2023-01-30T21:43:20.341Z,6.60
2023-01-30T21:46:11.044Z,6.90
2023-01-30T21:49:01.882Z,7.80
2023-01-30T21:51:53.335Z,7.00
2023-01-30T21:54:43.563Z,5.60
2023-01-30T21:57:33.870Z,5.20
2023-01-30T22:00:24.427Z,4.70
2023-01-30T22:03:15.076Z,4.70
2023-01-30T22:06:07.995Z,5.10
2023-01-30T22:08:59.219Z,5.30
2023-01-30T22:11:49.832Z,4.70
2023-01-30T22:14:40.382Z,5.00
2023-01-30T22:17:30.609Z,4.80
2023-01-30T22:20:21.475Z,4.80
2023-01-30T22:23:12.034Z,4.20
2023-01-30T22:26:03.084Z,4.30
2023-01-30T22:28:57.295Z,4.10
2023-01-30T22:31:47.849Z,4.10
2023-01-30T22:34:40.607Z,4.30
2023-01-30T22:37:31.587Z,4.80
2023-01-30T22:40:22.816Z,4.00
2023-01-30T22:43:13.249Z,3.60
2023-01-30T22:46:05.988Z,4.10
2023-01-30T22:48:56.662Z,4.10
2023-01-30T22:51:46.985Z,3.50
2023-01-30T22:54:37.380Z,3.60
2023-01-30T22:57:28.406Z,3.60
2023-01-30T23:00:19.399Z,3.30
2023-01-30T23:03:09.824Z,3.80
2023-01-30T23:06:06.209Z,3.60
2023-01-30T23:08:58.643Z,3.30
2023-01-30T23:12:11.386Z,3.80
2023-01-30T23:15:02.153Z,3.80
2023-01-30T23:18:09.884Z,3.60
2023-01-30T23:21:00.893Z,3.30
2023-01-30T23:23:52.617Z,4.00
2023-01-30T23:26:45.826Z,3.60
2023-01-30T23:29:36.972Z,3.50
2023-01-30T23:32:27.442Z,3.50
2023-01-30T23:35:18.768Z,3.60
2023-01-30T23:38:19.403Z,3.60
2023-01-30T23:41:12.001Z,3.60
2023-01-30T23:44:03.104Z,4.10
2023-01-30T23:46:53.821Z,3.90
2023-01-30T23:49:43.948Z,3.50
2023-01-30T23:52:34.390Z,4.50
2023-01-30T23:55:25.401Z,3.20
2023-01-30T23:58:16.001Z,3.60
